Time;durP1;ratioP1;P1;durP2;ratioP2;P2;SDS_P1;SDS_P2;PMS_P1;PMS_P2;Temp;Humidity;BMP_temperature;BMP_pressure;BME280_temperature;BME280_humidity;BME280_pressure;Samples;Min_cycle;Max_cycle;Signal;HPM_P1;HPM_P2
2021/12/12 00:02:44;;;;;;;20.00;7.10;;;;;;;14.87;100.00;99098.81;5071214;28;20040;-69
2021/12/12 00:05:15;;;;;;;23.30;8.35;;;;;;;14.68;100.00;99064.97;5072515;28;20103;-68
2021/12/12 00:07:41;;;;;;;20.98;7.20;;;;;;;14.96;100.00;99116.19;5072570;28;20020;-68
2021/12/12 00:10:16;;;;;;;19.50;7.05;;;;;;;14.91;100.00;99094.34;5071379;28;20127;-69
2021/12/12 00:12:54;;;;;;;20.25;8.13;;;;;;;15.01;100.00;99096.25;5072427;28;20048;-70
2021/12/12 00:15:21;;;;;;;20.83;8.10;;;;;;;14.75;100.00;99100.38;5072521;28;20021;-69
2021/12/12 00:17:48;;;;;;;23.45;9.57;;;;;;;14.52;100.00;99094.94;5072496;28;20570;-69
2021/12/12 00:20:20;;;;;;;24.15;8.50;;;;;;;14.23;100.00;99094.03;5071012;28;20023;-69
2021/12/12 00:22:47;;;;;;;23.63;10.27;;;;;;;14.33;100.00;99102.03;5070832;28;20046;-69
2021/12/12 00:25:15;;;;;;;22.73;10.18;;;;;;;14.23;100.00;99080.41;5072316;28;20032;-69
2021/12/12 00:27:44;;;;;;;27.67;9.85;;;;;;;14.12;100.00;99075.09;5072171;28;20028;-69
2021/12/12 00:30:12;;;;;;;13.95;6.22;;;;;;;14.29;100.00;99072.44;5072156;28;20047;-70
2021/12/12 00:32:39;;;;;;;18.80;6.53;;;;;;;14.36;100.00;99082.22;5072162;28;20138;-69
2021/12/12 00:35:10;;;;;;;22.02;6.60;;;;;;;14.13;100.00;99054.56;5072031;28;20052;-69
2021/12/12 00:37:37;;;;;;;26.25;9.90;;;;;;;14.02;100.00;99066.31;5072064;28;20477;-69
2021/12/12 00:40:28;;;;;;;16.63;6.43;;;;;;;13.79;100.00;99065.03;5072032;28;20063;-69
2021/12/12 00:42:58;;;;;;;19.83;8.23;;;;;;;13.69;100.00;99067.28;5070336;28;20389;-69
2021/12/12 00:45:27;;;;;;;18.63;8.20;;;;;;;13.68;100.00;99078.44;5071761;28;20128;-69
2021/12/12 00:47:56;;;;;;;23.17;7.57;;;;;;;13.67;100.00;99081.03;5070611;28;20043;-69
2021/12/12 00:50:28;;;;;;;29.27;11.45;;;;;;;13.53;100.00;99081.78;5070417;28;20024;-69
2021/12/12 00:52:55;;;;;;;21.75;7.97;;;;;;;13.51;100.00;99085.38;5071654;28;20556;-72
2021/12/12 00:55:22;;;;;;;19.40;8.05;;;;;;;13.38;100.00;99085.19;5071772;28;20134;-69
2021/12/12 00:57:54;;;;;;;29.02;10.20;;;;;;;13.24;100.00;99069.78;5071576;28;20021;-69
2021/12/12 01:00:30;;;;;;;24.33;9.00;;;;;;;13.14;100.00;99071.19;5070168;28;20024;-69
2021/12/12 01:02:58;;;;;;;18.10;7.72;;;;;;;12.84;100.00;99055.72;5071466;28;20517;-69
2021/12/12 01:05:25;;;;;;;20.45;8.30;;;;;;;12.76;100.00;99049.34;5070191;28;20032;-69
2021/12/12 01:07:53;;;;;;;19.05;6.80;;;;;;;13.00;100.00;99071.03;5071513;28;20034;-69
2021/12/12 01:10:28;;;;;;;15.25;6.75;;;;;;;12.88;100.00;99059.75;5071688;28;20036;-69
2021/12/12 01:12:58;;;;;;;19.48;7.82;;;;;;;12.75;100.00;99060.47;5070064;28;20163;-69
2021/12/12 01:15:31;;;;;;;18.95;7.57;;;;;;;12.82;100.00;99085.59;5071502;28;20039;-70
2021/12/12 01:18:02;;;;;;;24.58;7.68;;;;;;;12.75;100.00;99088.53;5070236;28;20025;-69
2021/12/12 01:20:52;;;;;;;26.45;11.00;;;;;;;12.69;100.00;99083.75;5070174;28;20033;-68
2021/12/12 01:23:26;;;;;;;26.58;9.05;;;;;;;12.40;100.00;99039.31;5071138;28;20166;-69
2021/12/12 01:25:53;;;;;;;25.50;9.73;;;;;;;12.65;100.00;99059.28;5069958;28;20428;-70
2021/12/12 01:28:23;;;;;;;27.67;7.07;;;;;;;12.66;100.00;99035.44;5071305;28;20103;-68
2021/12/12 01:30:52;;;;;;;21.33;8.82;;;;;;;12.36;100.00;99016.63;5071005;28;20025;-69
2021/12/12 01:33:36;;;;;;;27.35;10.90;;;;;;;12.33;100.00;99027.78;5069686;28;20500;-69
2021/12/12 01:36:23;;;;;;;22.35;9.80;;;;;;;12.35;100.00;99012.41;5069822;28;20448;-69
2021/12/12 01:38:55;;;;;;;27.45;11.20;;;;;;;12.10;100.00;98962.69;5071178;28;20029;-70
2021/12/12 01:41:38;;;;;;;32.30;14.02;;;;;;;12.32;100.00;99003.19;5070668;28;20044;-69
2021/12/12 01:44:14;;;;;;;25.38;9.85;;;;;;;12.23;100.00;99013.88;5069023;28;20032;-70
2021/12/12 01:46:47;;;;;;;20.65;9.50;;;;;;;12.26;100.00;99016.25;5070822;28;20032;-70
2021/12/12 01:49:21;;;;;;;22.73;9.73;;;;;;;11.83;100.00;98970.88;5069757;28;20029;-70
2021/12/12 01:51:49;;;;;;;27.50;11.90;;;;;;;12.23;100.00;99038.50;5070673;28;20086;-69
2021/12/12 01:54:25;;;;;;;18.27;9.60;;;;;;;12.30;100.00;99058.50;5069500;28;20024;-69
2021/12/12 01:56:58;;;;;;;23.77;10.20;;;;;;;12.29;100.00;99048.41;5070810;28;20051;-70
2021/12/12 01:59:30;;;;;;;25.80;10.15;;;;;;;12.27;100.00;99045.94;5069338;28;20025;-69
2021/12/12 02:02:03;;;;;;;;;;;;;;;12.28;100.00;99052.66;5071058;28;20085;-69
2021/12/12 02:04:40;;;;;;;18.70;8.20;;;;;;;12.32;100.00;99059.25;5070687;28;19927;-69
2021/12/12 02:07:10;;;;;;;16.88;8.18;;;;;;;11.99;100.00;99013.38;5070756;28;20032;-69
2021/12/12 02:09:37;;;;;;;16.23;8.77;;;;;;;12.36;100.00;99075.25;5069200;28;20035;-69
2021/12/12 02:12:04;;;;;;;20.35;8.65;;;;;;;12.38;100.00;99089.53;5069343;28;20040;-69
2021/12/12 02:14:32;;;;;;;21.70;8.38;;;;;;;12.34;100.00;99093.13;5070401;28;20036;-69
2021/12/12 02:17:31;;;;;;;19.05;8.02;;;;;;;12.37;100.00;99107.47;5069202;28;20480;-69
2021/12/12 02:20:07;;;;;;;19.60;8.10;;;;;;;12.30;100.00;99118.88;5069175;28;20098;-69
2021/12/12 02:36:43;;;;;;;33.65;14.82;;;;;;;12.07;100.00;99035.91;5070598;28;20039;-69
2021/12/12 02:39:15;;;;;;;17.95;9.30;;;;;;;12.10;100.00;99040.88;5070323;28;20040;-69
2021/12/12 02:41:49;;;;;;;29.25;14.48;;;;;;;12.04;100.00;99069.19;5068851;28;20060;-69
2021/12/12 02:44:16;;;;;;;31.33;15.75;;;;;;;11.99;100.00;99051.56;5070102;28;20143;-69
2021/12/12 02:46:45;;;;;;;19.73;8.68;;;;;;;12.01;100.00;99026.84;5070218;28;20524;-70
2021/12/12 02:51:58;;;;;;;19.13;9.18;;;;;;;11.98;100.00;99038.91;5070376;28;20032;-69
2021/12/12 02:54:24;;;;;;;18.00;9.35;;;;;;;11.98;100.00;99052.44;5070206;28;20048;-69
2021/12/12 02:56:51;;;;;;;8.65;4.43;;;;;;;11.62;100.00;99015.19;5072978;28;20029;-69
2021/12/12 02:59:22;;;;;;;11.10;5.20;;;;;;;12.06;100.00;99072.47;5073735;28;20028;-69
2021/12/12 03:02:11;;;;;;;12.02;6.03;;;;;;;12.14;100.00;99083.94;5073763;28;20028;-70
2021/12/12 03:04:38;;;;;;;9.77;4.30;;;;;;;12.11;100.00;99099.38;5072666;28;20031;-69
2021/12/12 03:07:07;;;;;;;9.52;3.85;;;;;;;12.07;100.00;99100.41;5073734;28;20035;-69
2021/12/12 03:09:39;;;;;;;6.05;2.80;;;;;;;12.17;100.00;99105.91;5073659;28;20036;-69
2021/12/12 03:12:10;;;;;;;13.13;5.75;;;;;;;12.15;100.00;99118.72;5072526;28;20120;-69
2021/12/12 03:14:38;;;;;;;8.02;3.92;;;;;;;12.15;100.00;99123.81;5073793;28;20031;-68
2021/12/12 03:17:12;;;;;;;8.40;3.80;;;;;;;12.15;100.00;99138.25;5073794;28;20537;-70
2021/12/12 03:19:39;;;;;;;10.45;4.90;;;;;;;12.20;100.00;99138.88;5072481;28;20020;-69
2021/12/12 03:22:08;;;;;;;10.80;4.38;;;;;;;12.13;100.00;99135.81;5073409;28;20389;-68
2021/12/12 03:24:35;;;;;;;15.27;6.57;;;;;;;12.17;100.00;99134.75;5073203;28;20550;-69
2021/12/12 03:27:05;;;;;;;13.13;5.32;;;;;;;12.14;100.00;99134.09;5073482;28;20024;-69
2021/12/12 03:29:32;;;;;;;19.77;8.30;;;;;;;12.07;100.00;99119.97;5071993;28;20471;-69
2021/12/12 03:32:04;;;;;;;12.32;5.43;;;;;;;12.13;100.00;99137.50;5073273;28;20100;-70
2021/12/12 03:34:36;;;;;;;7.50;2.40;;;;;;;11.62;100.00;99044.03;5073359;28;20074;-69
2021/12/12 03:37:07;;;;;;;10.05;3.40;;;;;;;12.07;100.00;99122.53;5073191;28;20085;-69
2021/12/12 03:39:36;;;;;;;7.28;3.08;;;;;;;11.98;100.00;99116.13;5073149;28;20032;-69
2021/12/12 03:42:07;;;;;;;6.00;2.20;;;;;;;11.86;100.00;99103.16;5073023;28;20051;-69
2021/12/12 03:44:35;;;;;;;8.23;3.03;;;;;;;11.96;100.00;99109.47;5073103;28;20043;-70
2021/12/12 03:47:09;;;;;;;5.57;2.20;;;;;;;11.85;100.00;99111.69;5071650;28;20059;-68
2021/12/12 03:49:37;;;;;;;6.15;2.10;;;;;;;11.91;100.00;99132.63;5071797;28;20028;-69
2021/12/12 03:52:10;;;;;;;4.20;1.80;;;;;;;11.65;100.00;99099.03;5072817;28;20037;-69
2021/12/12 03:54:36;;;;;;;5.85;1.85;;;;;;;11.91;100.00;99150.44;5072826;28;20510;-69
2021/12/12 03:57:06;;;;;;;4.85;1.55;;;;;;;11.87;100.00;99159.13;5072917;28;20031;-69
2021/12/12 03:59:35;;;;;;;6.20;1.40;;;;;;;11.76;100.00;99161.34;5072679;28;20047;-69
2021/12/12 04:02:01;;;;;;;5.22;1.65;;;;;;;11.68;100.00;99168.50;5071328;28;20036;-69
2021/12/12 04:04:32;;;;;;;7.10;2.67;;;;;;;11.77;100.00;99178.25;5071456;28;20551;-69
2021/12/12 04:07:01;;;;;;;5.32;2.28;;;;;;;11.84;100.00;99183.91;5070816;28;20111;-69
2021/12/12 04:09:27;;;;;;;10.85;5.25;;;;;;;11.72;100.00;99179.38;5072339;28;20115;-70
2021/12/12 04:11:56;;;;;;;6.55;4.35;;;;;;;11.76;100.00;99179.19;5071193;28;20045;-69
2021/12/12 04:14:24;;;;;;;6.40;3.47;;;;;;;11.50;100.00;99161.66;5072387;28;20043;-69
2021/12/12 04:16:54;;;;;;;5.32;1.88;;;;;;;11.66;100.00;99187.28;5072344;28;20031;-68
2021/12/12 04:19:21;;;;;;;4.32;1.42;;;;;;;11.70;100.00;99193.91;5071247;28;20486;-73
2021/12/12 04:21:48;;;;;;;3.13;1.40;;;;;;;11.69;100.00;99193.06;5070966;28;20032;-69
2021/12/12 04:24:30;;;;;;;3.03;0.75;;;;;;;11.72;100.00;99203.13;5070780;28;20067;-69
2021/12/12 04:26:57;;;;;;;2.58;0.82;;;;;;;11.67;100.00;99211.84;5071050;28;20028;-69
2021/12/12 04:29:28;;;;;;;4.18;0.88;;;;;;;11.49;100.00;99185.44;5072137;28;20039;-69
2021/12/12 04:32:03;;;;;;;4.93;2.92;;;;;;;11.57;100.00;99201.22;5072224;28;20028;-69
2021/12/12 04:34:32;;;;;;;6.38;1.30;;;;;;;11.70;100.00;99219.34;5071019;28;20033;-70
2021/12/12 04:37:01;;;;;;;4.25;1.40;;;;;;;11.67;100.00;99233.03;5070531;28;20094;-70
2021/12/12 04:39:30;;;;;;;3.25;1.33;;;;;;;11.62;100.00;99242.59;5071993;28;20029;-70
2021/12/12 04:42:34;;;;;;;5.32;1.10;;;;;;;11.65;100.00;99244.97;5070310;28;20480;-70
2021/12/12 04:45:16;;;;;;;1.65;0.52;;;;;;;11.67;100.00;99257.66;5053197;28;20115;-70
2021/12/12 04:50:46;;;;;;;4.63;2.40;;;;;;;11.51;100.00;99260.03;5072177;28;20051;-70
2021/12/12 04:53:19;;;;;;;6.00;3.65;;;;;;;11.66;100.00;99251.78;5071701;28;20181;-69
2021/12/12 04:55:57;;;;;;;3.80;2.08;;;;;;;11.02;100.00;99204.50;5070322;28;20032;-70
2021/12/12 04:58:35;;;;;;;5.35;2.65;;;;;;;11.04;100.00;99231.53;5070421;28;20393;-70
2021/12/12 05:01:19;;;;;;;5.95;3.50;;;;;;;11.34;100.00;99270.13;5071452;28;20032;-70
2021/12/12 05:04:11;;;;;;;7.47;2.45;;;;;;;11.13;100.00;99283.75;5071450;28;20024;-70
2021/12/12 05:06:53;;;;;;;3.60;2.20;;;;;;;10.83;100.00;99268.03;5071577;28;20036;-68
2021/12/12 05:09:34;;;;;;;3.97;1.70;;;;;;;11.11;100.00;99285.53;5071358;28;20520;-70
2021/12/12 05:12:06;;;;;;;4.47;2.10;;;;;;;11.06;100.00;99292.50;5071539;28;20072;-69
2021/12/12 05:14:37;;;;;;;11.18;5.10;;;;;;;11.13;100.00;99291.38;5071308;28;20101;-70
2021/12/12 05:17:25;;;;;;;9.43;4.25;;;;;;;11.12;100.00;99310.06;5071272;28;20450;-69
2021/12/12 05:19:55;;;;;;;8.85;3.97;;;;;;;11.05;100.00;99304.38;5069121;28;20514;-69
2021/12/12 05:22:30;;;;;;;9.60;2.65;;;;;;;11.22;100.00;99301.16;5071247;28;20033;-69
2021/12/12 05:24:59;;;;;;;7.30;2.00;;;;;;;11.32;100.00;99304.97;5071154;28;20454;-69
2021/12/12 05:27:29;;;;;;;4.32;1.77;;;;;;;11.32;100.00;99304.97;5069700;28;20085;-69
2021/12/12 05:30:11;;;;;;;6.57;2.03;;;;;;;11.40;100.00;99319.91;5071196;28;20035;-69
2021/12/12 05:32:37;;;;;;;7.95;1.70;;;;;;;11.51;100.00;99313.47;5069853;28;20150;-69
2021/12/12 05:35:06;;;;;;;4.68;1.58;;;;;;;11.48;100.00;99321.25;5069587;28;20412;-69
2021/12/12 05:37:33;;;;;;;7.05;1.90;;;;;;;11.54;100.00;99307.44;5071204;28;20532;-68
2021/12/12 05:40:02;;;;;;;7.20;1.38;;;;;;;11.60;100.00;99297.81;5070997;28;20025;-69
2021/12/12 05:42:29;;;;;;;7.82;2.63;;;;;;;11.52;100.00;99304.97;5070570;28;20052;-69
2021/12/12 05:44:58;;;;;;;7.75;2.40;;;;;;;11.52;100.00;99310.06;5070969;28;20441;-68
2021/12/12 05:47:24;;;;;;;9.73;3.55;;;;;;;11.53;100.00;99306.59;5069524;28;20070;-69
2021/12/12 05:49:51;;;;;;;12.38;3.75;;;;;;;11.65;100.00;99308.63;5069492;28;20429;-69
2021/12/12 05:52:20;;;;;;;13.77;5.10;;;;;;;11.56;100.00;99303.09;5070954;28;20056;-69
2021/12/12 05:54:48;;;;;;;12.20;3.45;;;;;;;11.71;100.00;99318.56;5069489;28;20110;-68
2021/12/12 05:57:19;;;;;;;9.07;3.40;;;;;;;11.58;100.00;99330.16;5070717;28;20024;-69
2021/12/12 05:59:45;;;;;;;7.38;2.83;;;;;;;11.61;100.00;99347.00;5069620;28;20028;-69
2021/12/12 06:02:14;;;;;;;13.88;3.75;;;;;;;11.47;100.00;99332.31;5070426;28;20039;-68
2021/12/12 06:04:42;;;;;;;12.57;3.95;;;;;;;11.45;100.00;99344.28;5070932;28;20078;-68
2021/12/12 06:07:15;;;;;;;11.88;5.07;;;;;;;11.48;100.00;99349.25;5070751;28;20465;-68
2021/12/12 06:09:44;;;;;;;10.07;3.70;;;;;;;11.25;100.00;99352.72;5069322;28;20021;-68
2021/12/12 06:12:10;;;;;;;12.85;4.80;;;;;;;10.99;100.00;99339.44;5070656;28;20056;-68
2021/12/12 06:14:38;;;;;;;9.90;3.30;;;;;;;11.00;100.00;99330.91;5069394;28;20031;-68
2021/12/12 06:17:10;;;;;;;12.90;2.90;;;;;;;10.75;100.00;99292.91;5070563;28;20103;-68
2021/12/12 06:19:37;;;;;;;9.93;3.00;;;;;;;10.93;100.00;99314.25;5070678;28;20115;-69
2021/12/12 06:22:06;;;;;;;16.13;5.40;;;;;;;11.08;100.00;99326.31;5070377;28;20408;-68
2021/12/12 06:24:34;;;;;;;13.90;3.55;;;;;;;11.22;100.00;99327.44;5070378;28;20029;-68
2021/12/12 06:27:09;;;;;;;13.82;5.25;;;;;;;11.27;100.00;99322.13;5070565;28;20036;-68
2021/12/12 06:29:35;;;;;;;12.52;3.45;;;;;;;11.33;100.00;99344.78;5069065;28;20119;-69
2021/12/12 06:32:03;;;;;;;12.10;3.05;;;;;;;11.33;100.00;99344.78;5073624;28;20029;-69
2021/12/12 06:34:29;;;;;;;13.75;3.65;;;;;;;11.13;100.00;99320.16;5073232;28;20020;-68
2021/12/12 06:36:56;;;;;;;10.23;2.67;;;;;;;11.37;100.00;99348.06;5074134;28;20472;-68
2021/12/12 06:39:23;;;;;;;15.27;3.00;;;;;;;11.47;100.00;99367.94;5074263;28;20032;-69
2021/12/12 06:41:50;;;;;;;13.13;3.85;;;;;;;11.51;100.00;99371.22;5074027;28;20564;-68
2021/12/12 06:44:17;;;;;;;17.00;8.55;;;;;;;11.56;100.00;99387.09;5074008;28;20455;-68
2021/12/12 06:46:45;;;;;;;21.73;8.32;;;;;;;11.53;100.00;99382.97;5074109;28;20060;-69
2021/12/12 06:49:15;;;;;;;20.92;9.57;;;;;;;11.58;100.00;99391.25;5074123;28;20056;-68
2021/12/12 06:51:46;;;;;;;12.95;3.15;;;;;;;11.66;100.00;99403.69;5072833;28;20059;-69
2021/12/12 06:54:15;;;;;;;12.13;3.67;;;;;;;11.64;100.00;99402.91;5073877;28;20074;-70
2021/12/12 06:56:41;;;;;;;19.17;6.20;;;;;;;11.66;100.00;99403.69;5073923;28;20484;-68
2021/12/12 06:59:07;;;;;;;18.73;7.10;;;;;;;11.67;100.00;99405.31;5073822;28;20111;-68
2021/12/12 07:01:35;;;;;;;27.73;10.57;;;;;;;11.43;100.00;99373.25;5073907;28;20060;-69
2021/12/12 07:04:03;;;;;;;20.65;9.20;;;;;;;11.56;100.00;99390.50;5072627;28;20392;-69
2021/12/12 07:06:29;;;;;;;13.77;5.68;;;;;;;11.61;100.00;99397.91;5072519;28;20027;-69
2021/12/12 07:09:01;;;;;;;13.25;4.72;;;;;;;11.63;100.00;99403.78;5072477;28;20025;-69
2021/12/12 07:11:27;;;;;;;16.08;7.28;;;;;;;11.65;100.00;99412.16;5074080;28;20107;-69
2021/12/12 07:13:53;;;;;;;13.98;5.93;;;;;;;11.63;100.00;99419.88;5072295;28;20473;-69
2021/12/12 07:16:20;;;;;;;16.80;10.23;;;;;;;11.70;100.00;99412.84;5073602;28;20055;-69
2021/12/12 07:18:47;;;;;;;39.03;28.95;;;;;;;11.46;100.00;99370.56;5073501;28;20050;-69
2021/12/12 07:21:15;;;;;;;21.90;14.27;;;;;;;11.75;100.00;99413.47;5072123;28;20115;-69
2021/12/12 07:23:43;;;;;;;17.60;9.80;;;;;;;11.76;100.00;99418.53;5073598;28;20036;-69
2021/12/12 07:26:11;;;;;;;19.30;9.55;;;;;;;11.69;100.00;99419.66;5073407;28;20034;-69
2021/12/12 07:28:39;;;;;;;19.63;9.85;;;;;;;11.72;100.00;99436.53;5073500;28;20511;-69
2021/12/12 07:31:08;;;;;;;14.80;6.28;;;;;;;11.66;100.00;99435.06;5073188;28;20476;-69
2021/12/12 07:33:35;;;;;;;15.50;7.22;;;;;;;11.70;100.00;99425.59;5071933;28;20074;-69
2021/12/12 07:36:03;;;;;;;13.00;6.30;;;;;;;11.68;100.00;99405.28;5072112;28;20031;-69
2021/12/12 07:38:30;;;;;;;15.55;5.70;;;;;;;11.69;100.00;99401.00;5071815;28;20016;-69
2021/12/12 07:40:57;;;;;;;12.32;5.60;;;;;;;11.60;100.00;99394.56;5071631;28;20041;-69
2021/12/12 07:43:23;;;;;;;16.08;7.18;;;;;;;11.84;100.00;99403.75;5072061;28;20116;-69
2021/12/12 07:45:49;;;;;;;14.50;5.25;;;;;;;11.79;100.00;99397.19;5072921;28;20039;-69
2021/12/12 07:48:15;;;;;;;16.65;8.43;;;;;;;11.75;100.00;99401.59;5072883;28;20040;-69
2021/12/12 07:50:44;;;;;;;21.48;10.13;;;;;;;11.98;100.00;99433.72;5071743;28;20476;-70
2021/12/12 07:53:10;;;;;;;26.73;12.60;;;;;;;12.08;100.00;99463.03;5072812;28;20016;-69
2021/12/12 07:55:36;;;;;;;23.42;10.27;;;;;;;12.06;100.00;99469.91;5071710;28;20025;-69
2021/12/12 07:58:12;;;;;;;32.78;17.02;;;;;;;12.02;100.00;99474.28;5071482;28;20519;-69
2021/12/12 08:00:40;;;;;;;16.63;8.60;;;;;;;12.00;100.00;99476.06;5072783;28;20029;-69
2021/12/12 08:03:06;;;;;;;16.58;5.32;;;;;;;11.92;100.00;99470.47;5072774;28;20116;-69
2021/12/12 08:05:33;;;;;;;19.63;7.60;;;;;;;11.93;100.00;99473.84;5072570;28;20056;-70
2021/12/12 08:08:05;;;;;;;12.93;5.90;;;;;;;11.95;100.00;99472.06;5072599;28;20055;-69
2021/12/12 08:10:31;;;;;;;13.35;6.40;;;;;;;11.93;100.00;99469.59;5072949;28;20087;-70
2021/12/12 08:12:57;;;;;;;21.00;9.35;;;;;;;11.99;100.00;99476.13;5071183;28;20037;-69
2021/12/12 08:15:23;;;;;;;13.57;4.95;;;;;;;12.04;100.00;99481.88;5071181;28;20119;-69
2021/12/12 08:17:49;;;;;;;15.75;6.63;;;;;;;12.11;100.00;99498.56;5071304;28;20056;-69
2021/12/12 08:20:16;;;;;;;19.33;7.00;;;;;;;12.30;100.00;99513.91;5070910;28;20024;-69
2021/12/12 08:22:43;;;;;;;22.20;8.32;;;;;;;12.35;100.00;99506.88;5071098;28;20385;-69
2021/12/12 08:25:12;;;;;;;19.02;7.70;;;;;;;12.39;100.00;99511.78;5072413;28;20025;-69
2021/12/12 08:27:39;;;;;;;17.95;7.47;;;;;;;12.38;100.00;99507.56;5072134;28;20035;-69
2021/12/12 08:30:06;;;;;;;25.23;11.48;;;;;;;12.35;100.00;99487.31;5071048;28;20028;-69
2021/12/12 08:32:32;;;;;;;87.18;37.95;;;;;;;12.59;100.00;99508.38;5070721;28;20033;-69
2021/12/12 08:34:58;;;;;;;111.03;40.63;;;;;;;12.58;100.00;99499.06;5070641;28;20405;-69
2021/12/12 08:37:26;;;;;;;41.65;15.05;;;;;;;12.61;100.00;99496.38;5072092;28;20025;-69
2021/12/12 08:39:52;;;;;;;64.38;21.00;;;;;;;12.53;100.00;99489.06;5072071;28;20114;-70
2021/12/12 08:42:17;;;;;;;25.05;10.10;;;;;;;12.69;100.00;99505.38;5071579;28;20182;-69
2021/12/12 08:44:44;;;;;;;83.82;26.85;;;;;;;12.76;100.00;99500.78;5071933;28;20412;-69
2021/12/12 08:47:10;;;;;;;27.90;11.02;;;;;;;12.83;100.00;99492.81;5070505;28;20033;-69
2021/12/12 08:49:37;;;;;;;15.15;7.28;;;;;;;12.90;100.00;99501.00;5071924;28;20028;-69
2021/12/12 08:52:17;;;;;;;24.42;11.05;;;;;;;12.92;100.00;99502.59;5070270;28;20036;-69
2021/12/12 08:54:46;;;;;;;14.63;5.80;;;;;;;12.90;100.00;99501.00;5070178;28;20508;-68
2021/12/12 08:57:46;;;;;;;21.45;7.57;;;;;;;12.90;100.00;99498.47;5071693;28;20029;-68
2021/12/12 09:00:16;;;;;;;15.13;7.00;;;;;;;12.82;100.00;99510.72;5070380;28;20389;-69
2021/12/12 09:02:43;;;;;;;24.38;10.20;;;;;;;12.82;100.00;99514.13;5071526;28;20029;-68
2021/12/12 09:05:13;;;;;;;13.73;7.63;;;;;;;12.71;100.00;99500.19;5071379;28;20086;-69
2021/12/12 09:07:44;;;;;;;15.68;7.70;;;;;;;12.62;100.00;99491.22;5071590;28;20025;-69
2021/12/12 09:10:16;;;;;;;18.92;6.65;;;;;;;12.64;100.00;99484.31;5071689;28;20412;-68
2021/12/12 09:13:13;;;;;;;17.33;7.95;;;;;;;12.57;100.00;99482.13;5069945;28;20484;-69
2021/12/12 09:16:21;;;;;;;15.98;8.98;;;;;;;12.66;100.00;99486.78;5071177;28;20029;-69
2021/12/12 09:19:16;;;;;;;20.63;9.88;;;;;;;12.70;100.00;99499.34;5065524;28;20082;-69
2021/12/12 09:21:50;;;;;;;17.00;8.98;;;;;;;12.69;100.00;99515.56;5070648;28;20452;-69
2021/12/12 09:24:45;;;;;;;13.77;7.38;;;;;;;12.73;100.00;99499.22;5069783;28;20040;-70
2021/12/12 09:27:34;;;;;;;16.65;7.90;;;;;;;12.61;100.00;99466.63;5071178;28;20508;-69
2021/12/12 09:30:12;;;;;;;14.85;7.95;;;;;;;12.72;100.00;99507.75;5071182;28;20524;-69
2021/12/12 09:32:47;;;;;;;13.75;5.95;;;;;;;12.65;100.00;99503.00;5069883;28;20030;-69
2021/12/12 09:35:15;;;;;;;13.77;6.40;;;;;;;12.84;100.00;99530.19;5070817;28;20488;-70
2021/12/12 09:37:44;;;;;;;12.57;6.55;;;;;;;12.73;100.00;99531.56;5069936;28;20543;-70
2021/12/12 09:40:36;;;;;;;9.23;4.90;;;;;;;12.74;100.00;99541.69;5069810;28;20036;-70
2021/12/12 09:43:17;;;;;;;8.98;4.50;;;;;;;12.77;100.00;99541.56;5069489;28;20063;-69
2021/12/12 09:46:07;;;;;;;7.20;3.65;;;;;;;12.81;100.00;99545.63;5070883;28;20586;-69
2021/12/12 09:52:16;;;;;;;8.68;4.60;;;;;;;12.93;100.00;99551.91;5071014;28;20040;-68
2021/12/12 09:55:03;;;;;;;11.73;4.22;;;;;;;13.01;100.00;99558.31;5069369;28;20424;-69
2021/12/12 09:57:39;;;;;;;13.90;4.85;;;;;;;12.81;100.00;99529.50;5070593;28;20035;-68
2021/12/12 10:00:07;;;;;;;13.68;6.40;;;;;;;13.22;100.00;99558.28;5070845;28;20024;-69
2021/12/12 10:03:03;;;;;;;11.05;4.20;;;;;;;13.16;100.00;99556.00;5069266;28;20036;-69
2021/12/12 10:05:43;;;;;;;19.10;6.80;;;;;;;13.33;100.00;99553.53;5070106;28;20032;-69
2021/12/12 10:08:21;;;;;;;12.38;5.40;;;;;;;13.37;100.00;99553.28;5069269;28;20386;-70
2021/12/12 10:11:10;;;;;;;11.05;5.28;;;;;;;13.19;100.00;99508.22;5070816;28;20108;-69
2021/12/12 10:14:09;;;;;;;11.73;5.30;;;;;;;13.44;100.00;99513.00;5070709;28;20515;-69
2021/12/12 10:16:47;;;;;;;19.98;9.45;;;;;;;13.55;100.00;99518.41;5070607;28;20463;-69
2021/12/12 10:19:33;;;;;;;5.03;2.85;;;;;;;13.55;100.00;99531.19;5069256;28;20094;-69
2021/12/12 10:22:02;;;;;;;11.23;6.10;;;;;;;13.73;100.00;99514.97;5070381;28;20443;-68
2021/12/12 10:24:32;;;;;;;7.40;4.55;;;;;;;14.19;100.00;99509.28;5070457;28;20036;-68
2021/12/12 10:27:08;;;;;;;20.00;9.10;;;;;;;14.21;100.00;99516.84;5070587;28;20033;-69
2021/12/12 10:30:00;;;;;;;23.35;10.13;;;;;;;13.99;100.00;99522.22;5069033;28;20444;-72
2021/12/12 10:32:32;;;;;;;16.38;6.50;;;;;;;14.10;100.00;99527.63;5067205;28;20037;-72
2021/12/12 10:35:11;;;;;;;;;;;;;;;14.18;100.00;99548.50;5060095;28;20033;-72
2021/12/12 10:37:50;;;;;;;36.15;14.88;;;;;;;14.52;100.00;99553.63;5050679;28;20252;-72
2021/12/12 10:40:45;;;;;;;14.13;5.68;;;;;;;14.35;100.00;99514.47;5050739;28;20025;-69
2021/12/12 10:43:22;;;;;;;16.38;7.10;;;;;;;14.28;100.00;99513.94;5049336;28;20132;-70
2021/12/12 10:45:59;;;;;;;36.60;15.50;;;;;;;14.45;100.00;99546.34;5050244;28;20032;-72
2021/12/12 10:48:34;;;;;;;19.17;6.72;;;;;;;13.78;100.00;99479.84;5049733;28;20036;-73
2021/12/12 10:51:13;;;;;;;12.57;5.22;;;;;;;14.32;100.00;99555.56;5049570;28;20183;-73
2021/12/12 10:53:50;;;;;;;22.33;10.25;;;;;;;14.26;100.00;99568.59;5050409;28;20033;-70
2021/12/12 10:56:30;;;;;;;15.18;6.47;;;;;;;14.02;100.00;99557.03;5050435;28;20470;-72
2021/12/12 10:59:34;;;;;;;26.45;11.35;;;;;;;13.89;100.00;99562.72;5050206;28;20512;-72
2021/12/12 11:02:05;;;;;;;32.20;14.18;;;;;;;13.87;100.00;99568.81;5037529;28;20033;-70
2021/12/12 11:04:45;;;;;;;18.60;7.80;;;;;;;13.76;100.00;99573.59;5050314;28;20108;-74
2021/12/12 11:07:31;;;;;;;25.80;10.18;;;;;;;13.77;100.00;99572.69;5050318;28;20025;-70
2021/12/12 11:10:26;;;;;;;20.35;8.45;;;;;;;13.55;100.00;99552.44;5048914;28;20059;-70
2021/12/12 11:12:58;;;;;;;35.30;14.85;;;;;;;13.70;100.00;99556.84;5049561;28;20067;-71
2021/12/12 11:15:36;;;;;;;12.23;5.13;;;;;;;13.77;100.00;99570.13;5062327;28;20036;-71
2021/12/12 11:18:10;;;;;;;34.20;12.70;;;;;;;13.70;100.00;99545.78;4717721;28;10000189;-71
2021/12/12 11:20:54;;;;;;;67.60;22.30;;;;;;;13.91;100.00;99542.19;5069127;28;20573;-71
2021/12/12 11:23:35;;;;;;;14.85;5.32;;;;;;;13.82;100.00;99548.59;5058128;28;20107;-70
2021/12/12 11:26:08;;;;;;;38.50;15.93;;;;;;;13.87;100.00;99544.09;5052624;28;20059;-69
2021/12/12 11:28:43;;;;;;;25.20;10.50;;;;;;;13.75;100.00;99548.94;5047715;28;21127;-71
2021/12/12 11:31:37;;;;;;;23.10;9.70;;;;;;;13.73;100.00;99548.19;5054594;28;20377;-70
2021/12/12 11:34:07;;;;;;;21.48;10.05;;;;;;;13.71;100.00;99545.72;5068410;28;20033;-69
2021/12/12 11:36:45;;;;;;;13.00;5.55;;;;;;;13.48;100.00;99500.00;5068402;28;20032;-70
2021/12/12 11:39:29;;;;;;;12.25;5.05;;;;;;;13.65;100.00;99553.66;5068545;28;20407;-70
2021/12/12 11:42:05;;;;;;;10.25;3.30;;;;;;;13.60;100.00;99555.63;5067906;28;20535;-70
2021/12/12 11:44:55;;;;;;;18.05;7.13;;;;;;;13.63;100.00;99569.97;5067011;28;20028;-69
2021/12/12 11:47:52;;;;;;;18.40;7.20;;;;;;;13.62;100.00;99558.94;5067903;28;20033;-70
2021/12/12 11:50:27;;;;;;;12.80;4.80;;;;;;;13.67;100.00;99541.66;5068102;28;20043;-70
2021/12/12 11:52:57;;;;;;;18.75;7.43;;;;;;;13.73;100.00;99532.84;5067994;28;20028;-71
2021/12/12 11:55:40;;;;;;;22.40;8.43;;;;;;;13.68;100.00;99528.00;5068445;28;20040;-71
2021/12/12 11:58:45;;;;;;;34.22;15.85;;;;;;;13.69;100.00;99527.06;5067289;28;20028;-70
2021/12/12 12:01:14;;;;;;;34.00;14.85;;;;;;;13.64;100.00;99531.59;5067614;28;20106;-68
2021/12/12 12:04:27;;;;;;;34.13;14.93;;;;;;;13.78;100.00;99526.66;5067875;28;20765;-69
2021/12/12 12:07:38;;;;;;;22.77;11.00;;;;;;;13.59;100.00;99527.56;5066586;28;20444;-71
2021/12/12 12:10:04;;;;;;;27.48;13.18;;;;;;;13.50;100.00;99521.19;5067957;28;20475;-70